Current Weather



TAF Data Links

METAR Data Links

Latest METAR/TAF Data


Available data for KAUS from the past 2 hours
AUSTIN, TX
Metar
KAUS 150653Z 29003KT 10SM CLR M01/M02 A3035 RMK AO2 SLP281 T10061022

06:53 UTC

Wind: 290° 3kt

Visibility: 10 SM

Sky:

Temp: -1 deg C / 30.2 deg F

Dewpoint: -2 deg C / 28.4 deg F

Pressure: 30.35 inHg

TAF
KAUS 150536Z 1506/1612 VRB03KT P6SM SKC FM151400 21005KT P6SM FEW250


Available data for KEDC from the past 2 hours
AUSTIN EXEC, TX
Metar
KEDC 150715Z AUTO 00000KT 10SM CLR 02/M03 A3034 RMK AO2

07:15 UTC

Wind: 0° 0kt

Visibility: 10 SM

Sky:

Temp: 2 deg C / 35.6 deg F

Dewpoint: -3 deg C / 26.6 deg F

Pressure: 30.34 inHg



Available data for KRYW from the past 2 hours
LAGO VISTA, TX
Metar
KRYW 150715Z AUTO 22003KT 10SM CLR 05/M03 A3032 RMK AO2 T00451026

07:15 UTC

Wind: 220° 3kt

Visibility: 10 SM

Sky:

Temp: 5 deg C / 41 deg F

Dewpoint: -3 deg C / 26.6 deg F

Pressure: 30.32 inHg